METAR Data
IDs: Format: Raw Decoded Include TAF

Data at: 0006 UTC 25 Apr 2019

METAR for:KBRL (Burlington/SE Iowa R, IA, US)
Text:KBRL 242353Z AUTO 13007KT 10SM SCT038 14/07 A2984 RMK AO2 SLP103 T01390072 10161 20139 58010
Temperature: 13.9°C ( 57°F)
Dewpoint: 7.2°C ( 45°F) [RH = 64%]
Pressure (altimeter):29.84 inches Hg (1010.6 mb) [Sea level pressure: 1010.3 mb]
Winds:from the SE (130 degrees) at 8 MPH (7 knots; 3.6 m/s)
Visibility:10 or more sm (16+ km)
Ceiling:at least 12,000 feet AGL
Clouds: scattered clouds at 3800 feet AGL
QC Flag:automated observation with no human augmentation